createdAt,value
2018-01-03T06:56:02.805Z,3
2018-01-03T07:08:33.612Z,7
2018-01-03T07:10:33.705Z,10
2018-01-03T07:11:33.788Z,13
2018-01-03T07:12:03.792Z,17
2018-01-03T07:13:03.832Z,20
2018-01-03T07:13:33.941Z,23
2018-01-03T07:14:03.905Z,27
2018-01-03T07:15:04.039Z,30
2018-01-03T07:16:04.067Z,33
2018-01-03T07:16:34.103Z,37
2018-01-03T07:17:34.165Z,40
2018-01-03T07:18:34.219Z,43
2018-01-03T07:19:34.264Z,47
2018-01-03T07:20:04.319Z,50
2018-01-03T07:20:34.375Z,53
2018-01-03T07:21:34.401Z,57
2018-01-03T07:22:04.444Z,60
2018-01-03T07:22:34.451Z,63
2018-01-03T07:23:04.471Z,67
2018-01-03T07:24:04.562Z,70
2018-01-03T07:24:34.624Z,73
2018-01-03T07:25:04.596Z,80
2018-01-03T07:25:34.665Z,83
2018-01-03T07:26:04.661Z,87
2018-01-03T07:26:34.754Z,93
2018-01-03T07:27:04.746Z,97
2018-01-03T07:27:34.775Z,103
2018-01-03T07:28:04.774Z,110
2018-01-03T07:28:34.809Z,117
2018-01-03T07:29:04.877Z,123
2018-01-03T07:29:34.858Z,130
2018-01-03T07:30:04.879Z,133
2018-01-03T07:30:34.943Z,140
2018-01-03T07:31:04.927Z,143
2018-01-03T07:31:35.009Z,150
2018-01-03T07:32:05.005Z,157
2018-01-03T07:32:35.051Z,163
2018-01-03T07:33:05.065Z,170
2018-01-03T07:33:35.138Z,177
2018-01-03T07:34:05.122Z,183
2018-01-03T07:34:35.162Z,193
2018-01-03T07:35:05.223Z,200
2018-01-03T07:35:35.234Z,210
2018-01-03T07:36:05.259Z,217
2018-01-03T07:36:35.334Z,227
2018-01-03T07:37:05.332Z,237
2018-01-03T07:37:35.376Z,247
2018-01-03T07:38:05.415Z,257
2018-01-03T07:38:35.517Z,267
2018-01-03T07:39:05.454Z,273
2018-01-03T07:39:35.640Z,280
2018-01-03T07:40:05.529Z,290
2018-01-03T07:40:35.558Z,297
2018-01-03T07:41:05.636Z,307
2018-01-03T07:41:35.615Z,313
2018-01-03T07:42:05.686Z,320
2018-01-03T07:42:35.706Z,327
2018-01-03T07:43:05.709Z,333
2018-01-03T07:43:35.710Z,340
2018-01-03T07:44:05.729Z,343
2018-01-03T07:44:35.801Z,350
2018-01-03T07:45:05.819Z,353
2018-01-03T07:45:35.836Z,360
2018-01-03T07:46:05.866Z,367
2018-01-03T07:46:35.899Z,373
2018-01-03T07:47:05.919Z,383
2018-01-03T07:47:35.960Z,390
2018-01-03T07:48:05.975Z,393
2018-01-03T07:48:36.056Z,397
2018-01-03T07:49:06.085Z,400
2018-01-03T07:49:36.102Z,407
2018-01-03T07:50:06.136Z,417
2018-01-03T07:50:36.170Z,423
2018-01-03T07:51:06.170Z,427
2018-01-03T07:51:36.227Z,433
2018-01-03T07:52:06.259Z,440
2018-01-03T07:52:36.346Z,450
2018-01-03T07:53:06.295Z,457
2018-01-03T07:53:36.443Z,463
2018-01-03T07:54:06.409Z,470
2018-01-03T07:54:36.450Z,477
2018-01-03T07:55:06.449Z,473
2018-01-03T07:55:36.512Z,470
2018-01-03T07:56:06.527Z,457
2018-01-03T07:56:36.556Z,427
2018-01-03T07:57:06.584Z,380
2018-01-03T07:57:36.625Z,337
2018-01-03T07:58:06.637Z,293
2018-01-03T07:58:36.726Z,260
2018-01-03T07:59:06.704Z,247
2018-01-03T07:59:36.804Z,237
2018-01-03T08:00:06.741Z,230
2018-01-03T08:00:36.795Z,223
2018-01-03T08:01:06.835Z,220
2018-01-03T08:01:36.850Z,217
2018-01-03T08:02:06.881Z,223
2018-01-03T08:02:37.213Z,257
2018-01-03T08:03:06.941Z,320
2018-01-03T08:03:36.998Z,390
2018-01-03T08:04:07.005Z,447
2018-01-03T08:04:37.045Z,513
2018-01-03T08:05:07.059Z,580
2018-01-03T08:05:37.114Z,627
2018-01-03T08:06:07.147Z,660
2018-01-03T08:06:37.186Z,707
2018-01-03T08:07:07.228Z,753
2018-01-03T08:07:37.757Z,793
2018-01-03T08:08:07.258Z,823
2018-01-03T08:08:37.364Z,840
2018-01-03T08:09:07.326Z,853
2018-01-03T08:09:37.498Z,863
2018-01-03T08:10:07.377Z,850
2018-01-03T08:11:07.466Z,840
2018-01-03T08:11:37.474Z,817
2018-01-03T08:12:07.454Z,787
2018-01-03T08:12:37.652Z,760
2018-01-03T08:13:07.531Z,737
2018-01-03T08:13:37.580Z,720
2018-01-03T08:14:07.623Z,707
2018-01-03T08:14:37.643Z,687
2018-01-03T08:15:07.792Z,663
2018-01-03T08:15:37.790Z,647
2018-01-03T08:16:07.706Z,630
2018-01-03T08:16:37.750Z,593
2018-01-03T08:17:07.802Z,533
2018-01-03T08:17:37.813Z,487
2018-01-03T08:18:07.824Z,467
2018-01-03T08:18:37.888Z,470
2018-01-03T08:19:07.975Z,493
2018-01-03T08:19:37.933Z,537
2018-01-03T08:20:08.022Z,593
2018-01-03T08:20:38.009Z,670
2018-01-03T08:21:08.022Z,767
2018-01-03T08:21:38.078Z,853
2018-01-03T08:22:08.084Z,927
2018-01-03T08:22:38.158Z,983
2018-01-03T08:23:08.136Z,990
2018-01-03T08:23:38.229Z,960
2018-01-03T08:24:08.235Z,950
2018-01-03T08:24:38.303Z,937
2018-01-03T08:25:08.308Z,927
2018-01-03T08:25:38.389Z,923
2018-01-03T08:27:08.431Z,930
2018-01-03T08:27:38.457Z,943
2018-01-03T08:28:08.500Z,950
2018-01-03T08:28:38.492Z,960
2018-01-03T08:29:08.560Z,970
2018-01-03T08:29:38.630Z,973
2018-01-03T08:30:08.626Z,957
2018-01-03T08:30:38.621Z,930
2018-01-03T08:31:08.635Z,903
2018-01-03T08:31:38.689Z,880
2018-01-03T08:32:08.753Z,870
2018-01-03T08:32:38.728Z,887
2018-01-03T08:33:08.755Z,907
2018-01-03T08:33:38.829Z,927
2018-01-03T08:34:08.828Z,950
2018-01-03T08:34:38.846Z,973
2018-01-03T08:35:08.926Z,993
2018-01-03T08:35:38.923Z,1017
2018-01-03T08:36:08.933Z,1047
2018-01-03T08:36:38.999Z,1067
2018-01-03T08:37:08.987Z,1097
2018-01-03T08:37:39.052Z,1123
2018-01-03T08:38:09.046Z,1147
2018-01-03T08:38:39.175Z,1170
2018-01-03T08:39:09.169Z,1193
2018-01-03T08:39:39.184Z,1217
2018-01-03T08:40:09.246Z,1233
2018-01-03T08:40:39.244Z,1247
2018-01-03T08:41:09.249Z,1250
2018-01-03T08:41:39.381Z,1257
2018-01-03T08:42:09.309Z,1280
2018-01-03T08:42:39.425Z,1333
2018-01-03T08:43:09.413Z,1390
2018-01-03T08:43:39.464Z,1473
2018-01-03T08:44:09.455Z,1600
2018-01-03T08:44:39.506Z,1833
2018-01-03T08:45:09.562Z,2130
2018-01-03T08:45:39.754Z,2203
2018-01-03T08:46:09.566Z,2673
2018-01-03T08:46:39.644Z,2703
2018-01-03T08:47:09.662Z,3213
2018-01-03T08:47:39.714Z,3720
2018-01-03T08:48:09.668Z,3850
2018-01-03T08:48:39.769Z,3860
2018-01-03T08:49:09.788Z,4933
2018-01-03T08:49:39.877Z,6723
2018-01-03T08:50:10.350Z,7410
2018-01-03T08:50:39.907Z,7940
2018-01-03T08:51:09.910Z,7893
2018-01-03T08:51:39.944Z,8360
2018-01-03T08:52:09.994Z,7997
2018-01-03T08:52:39.980Z,7770
2018-01-03T08:53:10.008Z,7050
2018-01-03T08:53:40.047Z,5083
2018-01-03T08:54:10.046Z,6440
2018-01-03T08:54:40.159Z,6597
2018-01-03T08:55:10.200Z,6207
2018-01-03T08:55:40.182Z,5487
2018-01-03T08:56:10.231Z,4640
2018-01-03T08:56:40.314Z,3067
2018-01-03T08:57:10.246Z,2373
2018-01-03T08:57:40.305Z,1707
2018-01-03T08:58:10.329Z,1553
2018-01-03T08:58:40.369Z,1480
2018-01-03T08:59:10.376Z,1443
2018-01-03T08:59:40.397Z,1280
2018-01-03T09:00:10.441Z,1127
2018-01-03T09:00:40.463Z,1080
2018-01-03T09:01:10.486Z,1113
2018-01-03T09:01:40.526Z,1233
2018-01-03T09:02:10.570Z,1437
2018-01-03T09:02:40.590Z,1617
2018-01-03T09:03:10.603Z,1740
2018-01-03T09:03:40.665Z,1783
2018-01-03T09:04:10.666Z,1730
2018-01-03T09:04:40.739Z,1650
2018-01-03T09:05:10.801Z,1553
2018-01-03T09:05:40.762Z,1440
2018-01-03T09:06:10.764Z,1340
2018-01-03T09:06:40.822Z,1290
2018-01-03T09:07:10.840Z,1253
2018-01-03T09:07:40.879Z,1260
2018-01-03T09:08:10.903Z,1393
2018-01-03T09:08:40.961Z,1537
2018-01-03T09:09:10.964Z,1763
2018-01-03T09:09:41.059Z,1907
2018-01-03T09:10:11.046Z,2100
2018-01-03T09:10:41.083Z,2397
2018-01-03T09:11:11.089Z,2733
2018-01-03T09:11:41.131Z,3003
2018-01-03T09:12:11.140Z,3140
2018-01-03T09:12:41.198Z,3250
2018-01-03T09:13:11.201Z,2583
2018-01-03T09:13:41.259Z,2547
2018-01-03T09:14:11.286Z,2550
2018-01-03T09:14:41.360Z,2617
2018-01-03T09:15:11.335Z,2787
2018-01-03T09:15:41.418Z,5877
2018-01-03T09:16:11.423Z,4003
2018-01-03T09:16:41.469Z,2517
2018-01-03T09:17:11.509Z,2620
2018-01-03T09:17:41.533Z,2973
2018-01-03T09:18:11.549Z,3343
2018-01-03T09:18:41.628Z,2960
2018-01-03T09:19:11.595Z,2830
2018-01-03T09:19:41.627Z,3667
2018-01-03T09:20:11.638Z,7473
2018-01-03T09:20:41.686Z,7450
2018-01-03T09:21:11.747Z,5673
2018-01-03T09:21:41.765Z,3610
2018-01-03T09:22:11.754Z,3087
2018-01-03T09:22:41.883Z,3767
2018-01-03T09:23:11.861Z,3480
2018-01-03T09:23:41.940Z,4393
2018-01-03T09:24:11.875Z,4310
2018-01-03T09:24:41.938Z,3537
2018-01-03T09:25:11.949Z,2863
2018-01-03T09:25:42.026Z,2800
2018-01-03T09:26:12.016Z,2867
2018-01-03T09:26:42.105Z,2810
2018-01-03T09:27:12.060Z,2790
2018-01-03T09:27:42.119Z,2893
2018-01-03T09:28:12.168Z,3257
2018-01-03T09:28:42.205Z,3377
2018-01-03T09:29:12.190Z,3223
2018-01-03T09:29:42.255Z,3123
2018-01-03T09:30:12.291Z,3237
2018-01-03T09:30:42.427Z,3330
2018-01-03T09:31:12.387Z,3010
2018-01-03T09:31:42.354Z,3333
2018-01-03T09:32:12.402Z,3143
2018-01-03T09:32:42.456Z,3067
2018-01-03T09:33:12.474Z,3443
2018-01-03T09:33:42.544Z,3220
2018-01-03T09:34:12.553Z,3397
2018-01-03T09:34:42.564Z,3233
2018-01-03T09:35:12.629Z,3473
2018-01-03T09:35:42.708Z,3587
2018-01-03T09:36:12.661Z,2850
2018-01-03T09:36:42.724Z,2497
2018-01-03T09:37:12.735Z,2313
2018-01-03T09:37:42.764Z,2287
2018-01-03T09:38:12.814Z,2320
2018-01-03T09:38:42.822Z,2393
2018-01-03T09:39:12.839Z,2467
2018-01-03T09:39:42.883Z,2493
2018-01-03T09:40:12.917Z,2457
2018-01-03T09:40:42.936Z,2397
2018-01-03T09:41:12.966Z,2317
2018-01-03T09:41:43.055Z,2207
2018-01-03T09:42:13.052Z,2027
2018-01-03T09:42:43.121Z,1817
2018-01-03T09:43:13.106Z,1573
2018-01-03T09:43:43.133Z,1413
2018-01-03T09:44:13.156Z,1303
2018-01-03T09:44:43.212Z,1147
2018-01-03T09:45:13.204Z,1040
2018-01-03T09:45:43.283Z,1020
2018-01-03T09:46:13.306Z,967
2018-01-03T09:46:43.346Z,950
2018-01-03T09:47:13.288Z,957
2018-01-03T09:47:43.428Z,943
2018-01-03T09:48:13.429Z,963
2018-01-03T09:48:43.501Z,983
2018-01-03T09:49:13.480Z,990
2018-01-03T09:49:43.505Z,987
2018-01-03T09:50:13.547Z,983
2018-01-03T09:50:43.595Z,970
2018-01-03T09:51:13.585Z,1070
2018-01-03T09:51:43.593Z,1203
2018-01-03T09:52:13.606Z,1283
2018-01-03T09:52:43.659Z,1263
2018-01-03T09:53:13.662Z,1220
2018-01-03T09:53:43.760Z,1100
2018-01-03T09:54:13.739Z,987
2018-01-03T09:54:43.780Z,853
2018-01-03T09:55:13.798Z,727
2018-01-03T09:55:43.933Z,647
2018-01-03T09:56:13.866Z,620
2018-01-03T09:56:43.895Z,670
2018-01-03T09:57:13.947Z,860
2018-01-03T09:57:43.969Z,1153
2018-01-03T09:58:13.966Z,1440
2018-01-03T09:58:44.012Z,1577
2018-01-03T09:59:14.040Z,1630
2018-01-03T09:59:44.086Z,1660
2018-01-03T10:00:14.132Z,1697
2018-01-03T10:00:44.208Z,1653
2018-01-03T10:01:14.157Z,1767
2018-01-03T10:01:44.227Z,1773
2018-01-03T10:02:14.221Z,1777
2018-01-03T10:02:44.284Z,1730
2018-01-03T10:03:14.331Z,1680
2018-01-03T10:03:44.393Z,1617
2018-01-03T10:04:14.379Z,1553
2018-01-03T10:04:44.483Z,1603
2018-01-03T10:05:14.416Z,1637
2018-01-03T10:05:44.531Z,1610
2018-01-03T10:06:14.517Z,1653
2018-01-03T10:06:44.541Z,1660
2018-01-03T10:07:14.581Z,1600
2018-01-03T10:07:44.625Z,1543
2018-01-03T10:08:14.638Z,1500
2018-01-03T10:08:44.652Z,1403
2018-01-03T10:09:14.664Z,1280
2018-01-03T10:09:44.741Z,1153
2018-01-03T10:10:14.740Z,1057
2018-01-03T10:10:44.827Z,1007
2018-01-03T10:11:14.809Z,1003
2018-01-03T10:11:44.824Z,1047
2018-01-03T10:12:14.836Z,1127
2018-01-03T10:12:44.898Z,1173
2018-01-03T10:13:14.906Z,1210
2018-01-03T10:13:44.944Z,1337
2018-01-03T10:14:14.946Z,1333
2018-01-03T10:14:45.274Z,1280
2018-01-03T10:15:15.021Z,1327
2018-01-03T10:15:45.119Z,1423
2018-01-03T10:16:15.077Z,1537
2018-01-03T10:16:45.128Z,1483
2018-01-03T10:17:15.156Z,1460
2018-01-03T10:17:45.182Z,1407
2018-01-03T10:18:15.198Z,1303
2018-01-03T10:18:45.385Z,1263
2018-01-03T10:19:15.302Z,1280
2018-01-03T10:19:45.335Z,1330
2018-01-03T10:20:15.377Z,1363
2018-01-03T10:20:45.462Z,1403
2018-01-03T10:21:15.458Z,1413
2018-01-03T10:21:45.438Z,1433
2018-01-03T10:22:15.477Z,1453
2018-01-03T10:22:45.568Z,1450
2018-01-03T10:23:15.582Z,1457
2018-01-03T10:23:45.647Z,1470
2018-01-03T10:24:15.621Z,1503
2018-01-03T10:24:45.735Z,1530
2018-01-03T10:25:15.750Z,1493
2018-01-03T10:26:15.779Z,1570
2018-01-03T10:26:45.776Z,1663
2018-01-03T10:27:15.784Z,1660
2018-01-03T10:27:45.880Z,1817
2018-01-03T10:28:15.845Z,2160
2018-01-03T10:28:45.923Z,2567
2018-01-03T10:29:15.908Z,2747
2018-01-03T10:29:46.029Z,2910
2018-01-03T10:30:15.960Z,3253
2018-01-03T10:30:46.073Z,3623
2018-01-03T10:31:16.057Z,3867
2018-01-03T10:31:46.087Z,4047
2018-01-03T10:32:16.084Z,4383
2018-01-03T10:32:46.164Z,4333
2018-01-03T10:33:16.161Z,4457
2018-01-03T10:33:46.250Z,4873
2018-01-03T10:34:16.238Z,5340
2018-01-03T10:34:46.271Z,5250
2018-01-03T10:35:16.266Z,5120
2018-01-03T10:35:46.332Z,4817
2018-01-03T10:36:16.402Z,4533
2018-01-03T10:36:46.413Z,4383
2018-01-03T10:37:16.378Z,4540
2018-01-03T10:37:46.445Z,4257
2018-01-03T10:38:16.465Z,3683
2018-01-03T10:38:46.493Z,3093
2018-01-03T10:39:16.497Z,2723
2018-01-03T10:39:46.609Z,2527
2018-01-03T10:40:16.615Z,2447
2018-01-03T10:40:46.646Z,2380
2018-01-03T10:41:16.696Z,2587
2018-01-03T10:41:46.702Z,2517
2018-01-03T10:42:16.722Z,2537
2018-01-03T10:42:46.732Z,2207
2018-01-03T10:43:16.765Z,1853
2018-01-03T10:43:46.800Z,1663
2018-01-03T10:44:16.792Z,1497
2018-01-03T10:44:46.850Z,1427
2018-01-03T10:45:16.882Z,1320
2018-01-03T10:45:46.918Z,1400
2018-01-03T10:46:16.981Z,1653
2018-01-03T10:46:46.960Z,1993
2018-01-03T10:47:16.994Z,2403
2018-01-03T10:47:47.059Z,2723
2018-01-03T10:48:17.044Z,2847
2018-01-03T10:48:47.292Z,3410
2018-01-03T10:49:17.121Z,3747
2018-01-03T10:49:47.168Z,3770
2018-01-03T10:50:17.199Z,3853
2018-01-03T10:50:47.211Z,4080
2018-01-03T10:51:17.306Z,4197
2018-01-03T10:51:47.340Z,4210
2018-01-03T10:52:17.325Z,4273
2018-01-03T10:52:47.365Z,3837
2018-01-03T10:53:17.412Z,3497
2018-01-03T10:53:47.437Z,3160
2018-01-03T10:54:17.449Z,3200
2018-01-03T10:54:47.516Z,3077
2018-01-03T10:55:17.502Z,2847
2018-01-03T10:55:47.559Z,2673
2018-01-03T10:56:17.572Z,2663
2018-01-03T10:56:47.622Z,2867
2018-01-03T10:57:17.603Z,3097
2018-01-03T10:57:47.762Z,3233
2018-01-03T10:58:17.703Z,3223
2018-01-03T10:58:47.721Z,3220
2018-01-03T10:59:17.748Z,3283
2018-01-03T10:59:47.789Z,3473
2018-01-03T11:00:17.800Z,3623
2018-01-03T11:00:47.833Z,3760
2018-01-03T11:01:17.899Z,4253
2018-01-03T11:01:47.910Z,4207
2018-01-03T11:02:17.905Z,4223
2018-01-03T11:02:47.961Z,4327
2018-01-03T11:03:17.961Z,4323
2018-01-03T11:03:48.018Z,4150
2018-01-03T11:04:18.031Z,3867
2018-01-03T11:04:48.083Z,3770
2018-01-03T11:05:18.125Z,3890
2018-01-03T11:05:48.137Z,4247
2018-01-03T11:06:18.184Z,4090
2018-01-03T11:07:18.258Z,4613
2018-01-03T11:07:48.266Z,5010
2018-01-03T11:08:18.315Z,5060
2018-01-03T11:08:48.366Z,5027
2018-01-03T11:09:18.371Z,4740
2018-01-03T11:09:48.463Z,4377
2018-01-03T11:10:18.488Z,4413
2018-01-03T11:10:48.537Z,4940
2018-01-03T11:11:18.532Z,5067
2018-01-03T11:11:48.537Z,5103
2018-01-03T11:12:18.583Z,5077
2018-01-03T11:12:48.605Z,4943
2018-01-03T11:13:18.631Z,4957
2018-01-03T11:13:48.671Z,4413
2018-01-03T11:14:18.677Z,4093
2018-01-03T11:14:48.721Z,3370
2018-01-03T11:15:18.986Z,3067
2018-01-03T11:15:48.786Z,2923
2018-01-03T11:16:18.835Z,2700
2018-01-03T11:16:48.828Z,2653
2018-01-03T11:17:18.903Z,2593
2018-01-03T11:17:48.951Z,2517
2018-01-03T11:18:18.920Z,2807
2018-01-03T11:18:48.971Z,2733
2018-01-03T11:19:18.975Z,2600
2018-01-03T11:19:49.048Z,2690
2018-01-03T11:20:19.044Z,2977
2018-01-03T11:20:49.097Z,3113
2018-01-03T11:21:19.210Z,3160
2018-01-03T11:21:49.220Z,3147
2018-01-03T11:22:49.273Z,3323
2018-01-03T11:23:19.254Z,3327
2018-01-03T11:23:49.283Z,3670
2018-01-03T11:24:19.316Z,4137
2018-01-03T11:24:49.334Z,4230
2018-01-03T11:25:19.501Z,4170
2018-01-03T11:25:49.406Z,4830
2018-01-03T11:26:19.432Z,4933
2018-01-03T11:26:49.446Z,4570
2018-01-03T11:27:19.500Z,4393
2018-01-03T11:27:49.552Z,4340
2018-01-03T11:28:19.542Z,4220
2018-01-03T11:28:49.589Z,4107
2018-01-03T11:29:19.609Z,3773
2018-01-03T11:29:49.621Z,3563
2018-01-03T11:30:19.690Z,3383
2018-01-03T11:30:49.690Z,3080
2018-01-03T11:31:19.745Z,2823
2018-01-03T11:31:49.740Z,2430
2018-01-03T11:32:19.758Z,2080
2018-01-03T11:32:49.812Z,1960
2018-01-03T11:33:19.838Z,1873
2018-01-03T11:33:49.862Z,1703
2018-01-03T11:34:19.872Z,1587
2018-01-03T11:34:49.932Z,1537
2018-01-03T11:35:19.935Z,1533
2018-01-03T11:35:50.003Z,1557
2018-01-03T11:36:20.067Z,1470
2018-01-03T11:36:50.048Z,1347
2018-01-03T11:37:20.078Z,1323
2018-01-03T11:37:50.107Z,1310
2018-01-03T11:38:20.167Z,1293
2018-01-03T11:38:50.163Z,1313
2018-01-03T11:39:20.245Z,1383
2018-01-03T11:39:50.243Z,1477
2018-01-03T11:40:20.345Z,1487
2018-01-03T11:40:50.331Z,1510
2018-01-03T11:41:20.338Z,1560
2018-01-03T11:41:50.386Z,1513
2018-01-03T11:42:20.407Z,1493
2018-01-03T11:42:50.459Z,1460
2018-01-03T11:43:20.476Z,1483
2018-01-03T11:43:50.493Z,1477
2018-01-03T11:44:20.501Z,1493
2018-01-03T11:44:50.562Z,1547
2018-01-03T11:45:20.557Z,1613
2018-01-03T11:45:50.681Z,1610
2018-01-03T11:46:50.672Z,1620
2018-01-03T11:47:20.769Z,1640
2018-01-03T11:47:50.710Z,1647
2018-01-03T11:48:20.768Z,1677
2018-01-03T11:48:50.780Z,1740
2018-01-03T11:49:20.811Z,1790
2018-01-03T11:49:50.853Z,1833
2018-01-03T11:50:20.868Z,1810
2018-01-03T11:50:50.910Z,1837
2018-01-03T11:51:20.937Z,1807
2018-01-03T11:51:50.969Z,1837
2018-01-03T11:52:21.072Z,1897
2018-01-03T11:52:51.017Z,1943
2018-01-03T11:53:21.095Z,2167
2018-01-03T11:53:51.119Z,2653
2018-01-03T11:54:21.096Z,3157
2018-01-03T11:54:51.150Z,3803
2018-01-03T11:55:21.252Z,4550
2018-01-03T11:55:51.222Z,5080
2018-01-03T11:56:21.222Z,5380
2018-01-03T11:56:51.270Z,5483
2018-01-03T11:57:21.396Z,5547
2018-01-03T11:58:21.423Z,5353
2018-01-03T11:58:51.456Z,5197
2018-01-03T11:59:21.421Z,5143
2018-01-03T11:59:51.488Z,5237
2018-01-03T12:00:21.489Z,5370
2018-01-03T12:00:51.598Z,4717
2018-01-03T12:01:21.607Z,4230
2018-01-03T12:01:51.616Z,3687
2018-01-03T12:02:21.704Z,3273
2018-01-03T12:02:51.740Z,2953
2018-01-03T12:03:21.703Z,2733
2018-01-03T12:03:51.741Z,2617
2018-01-03T12:04:21.768Z,2657
2018-01-03T12:04:51.765Z,2693
2018-01-03T12:05:21.815Z,2850
2018-01-03T12:05:51.857Z,3177
2018-01-03T12:06:21.916Z,3213
2018-01-03T12:06:51.943Z,3067
2018-01-03T12:07:22.000Z,2900
2018-01-03T12:07:52.114Z,2870
2018-01-03T12:08:22.009Z,2703
2018-01-03T12:08:52.016Z,2717
2018-01-03T12:09:22.073Z,2637
2018-01-03T12:09:52.109Z,2640
2018-01-03T12:10:22.207Z,2723
2018-01-03T12:10:52.195Z,2883
2018-01-03T12:11:22.189Z,2870
2018-01-03T12:11:52.274Z,2777
2018-01-03T12:12:22.334Z,2767
2018-01-03T12:12:52.305Z,2833
2018-01-03T12:13:22.339Z,3030
2018-01-03T12:13:52.358Z,3113
2018-01-03T12:14:22.373Z,3233
2018-01-03T12:14:52.373Z,3373
2018-01-03T12:15:22.623Z,3430
2018-01-03T12:15:52.496Z,3427
2018-01-03T12:16:22.469Z,3390
2018-01-03T12:16:52.496Z,3270
2018-01-03T12:17:22.605Z,3233
2018-01-03T12:17:52.596Z,3247
2018-01-03T12:18:22.626Z,3387
2018-01-03T12:18:52.618Z,3523
2018-01-03T12:19:22.655Z,3607
2018-01-03T12:19:52.699Z,3597
2018-01-03T12:20:22.699Z,3487
2018-01-03T12:20:52.754Z,3353
2018-01-03T12:21:22.753Z,3153
2018-01-03T12:21:52.809Z,2873
2018-01-03T12:22:22.884Z,2597
2018-01-03T12:22:52.879Z,2397
2018-01-03T12:23:22.912Z,2277
2018-01-03T12:23:52.927Z,2307
2018-01-03T12:24:22.951Z,2347
2018-01-03T12:24:53.027Z,2423
2018-01-03T12:25:24.532Z,2600
2018-01-03T12:25:53.104Z,2730
2018-01-03T12:26:23.063Z,2753
2018-01-03T12:26:53.142Z,2703
2018-01-03T12:27:23.187Z,2627
2018-01-03T12:27:53.181Z,2557
2018-01-03T12:28:23.228Z,2520
2018-01-03T12:28:53.538Z,2473
2018-01-03T12:29:23.264Z,2460
2018-01-03T12:29:53.373Z,2463
2018-01-03T12:30:23.332Z,2487
2018-01-03T12:30:53.376Z,2490
2018-01-03T12:31:23.368Z,2453
2018-01-03T12:31:53.448Z,2377
2018-01-03T12:32:23.495Z,2280
2018-01-03T12:32:53.514Z,2153
2018-01-03T12:33:23.559Z,2073
2018-01-03T12:33:53.592Z,2033
2018-01-03T12:34:23.568Z,2010
2018-01-03T12:34:53.610Z,1990
2018-01-03T12:35:23.642Z,1957
2018-01-03T12:35:53.679Z,1867
2018-01-03T12:36:23.698Z,1797
2018-01-03T12:36:53.735Z,1757
2018-01-03T12:37:23.784Z,1753
2018-01-03T12:37:53.813Z,1863
2018-01-03T12:38:23.808Z,2020
2018-01-03T12:38:53.843Z,2197
2018-01-03T12:39:23.863Z,2330
2018-01-03T12:39:53.917Z,2390
2018-01-03T12:40:23.968Z,2443
2018-01-03T12:40:54.011Z,2537
2018-01-03T12:41:24.007Z,2597
2018-01-03T12:41:54.056Z,2707
2018-01-03T12:42:24.195Z,2760
2018-01-03T12:42:54.138Z,2747
2018-01-03T12:43:24.152Z,2553
2018-01-03T12:43:54.213Z,2307
2018-01-03T12:44:24.169Z,2063
2018-01-03T12:44:54.273Z,1880
2018-01-03T12:45:24.306Z,1707
2018-01-03T12:45:54.360Z,1573
2018-01-03T12:46:24.349Z,1470
2018-01-03T12:46:54.406Z,1390
2018-01-03T12:47:24.425Z,1307
2018-01-03T12:47:54.416Z,1277
2018-01-03T12:48:24.484Z,1183
2018-01-03T12:48:54.505Z,1067
2018-01-03T12:49:24.552Z,1003
2018-01-03T12:50:24.591Z,1017
2018-01-03T12:50:54.648Z,1030
2018-01-03T12:51:24.649Z,1040
2018-01-03T12:51:54.713Z,1067
2018-01-03T12:52:24.779Z,1053
2018-01-03T12:52:54.814Z,1023
2018-01-03T12:53:24.773Z,1067
2018-01-03T12:53:54.783Z,1090
2018-01-03T12:54:24.865Z,1127
2018-01-03T12:54:54.849Z,1067
2018-01-03T12:55:24.974Z,1050
2018-01-03T12:55:54.974Z,1007
2018-01-03T12:56:24.908Z,1000
2018-01-03T12:56:55.018Z,950
2018-01-03T12:57:25.088Z,843
2018-01-03T12:57:55.070Z,737
2018-01-03T12:58:25.061Z,650
2018-01-03T12:58:55.149Z,570
2018-01-03T12:59:25.151Z,510
2018-01-03T12:59:55.187Z,473
2018-01-03T13:00:25.212Z,437
2018-01-03T13:00:55.253Z,413
2018-01-03T13:01:25.237Z,390
2018-01-03T13:01:55.331Z,370
2018-01-03T13:02:25.397Z,340
2018-01-03T13:02:55.381Z,323
2018-01-03T13:03:25.363Z,303
2018-01-03T13:03:55.449Z,300
2018-01-03T13:04:25.428Z,333
2018-01-03T13:04:55.523Z,367
2018-01-03T13:05:25.483Z,403
2018-01-03T13:05:55.531Z,430
2018-01-03T13:06:25.588Z,457
2018-01-03T13:06:55.600Z,483
2018-01-03T13:07:25.654Z,560
2018-01-03T13:07:55.688Z,633
2018-01-03T13:08:25.657Z,683
2018-01-03T13:08:55.697Z,723
2018-01-03T13:09:25.756Z,753
2018-01-03T13:09:55.908Z,740
2018-01-03T13:10:25.868Z,720
2018-01-03T13:10:55.849Z,717
2018-01-03T13:11:25.839Z,720
2018-01-03T13:11:55.890Z,700
2018-01-03T13:12:25.947Z,703
2018-01-03T13:12:55.953Z,707
2018-01-03T13:13:26.191Z,723
2018-01-03T13:13:56.015Z,687
2018-01-03T13:14:26.068Z,723
2018-01-03T13:14:56.068Z,713
2018-01-03T13:15:26.113Z,727
2018-01-03T13:15:56.143Z,690
2018-01-03T13:16:26.158Z,687
2018-01-03T13:16:56.274Z,713
2018-01-03T13:17:26.237Z,723
2018-01-03T13:17:56.336Z,720
2018-01-03T13:18:26.319Z,713
2018-01-03T13:18:56.347Z,723
2018-01-03T13:19:26.391Z,750
2018-01-03T13:19:56.394Z,697
2018-01-03T13:20:26.437Z,703
2018-01-03T13:20:56.504Z,690
2018-01-03T13:21:26.532Z,680
2018-01-03T13:21:56.550Z,700
2018-01-03T13:22:26.541Z,690
2018-01-03T13:22:56.583Z,680
2018-01-03T13:23:26.622Z,660
2018-01-03T13:23:56.684Z,653
2018-01-03T13:24:26.648Z,650
2018-01-03T13:24:56.692Z,643
2018-01-03T13:25:26.756Z,650
2018-01-03T13:25:56.771Z,683
2018-01-03T13:26:26.761Z,700
2018-01-03T13:26:56.886Z,713
2018-01-03T13:27:56.876Z,720
2018-01-03T13:28:26.886Z,740
2018-01-03T13:28:57.002Z,743
2018-01-03T13:29:26.953Z,680
2018-01-03T13:29:56.987Z,787
2018-01-03T13:30:27.005Z,880
2018-01-03T13:30:57.077Z,910
2018-01-03T13:31:27.098Z,917
2018-01-03T13:31:57.191Z,923
2018-01-03T13:32:27.156Z,913
2018-01-03T13:32:57.508Z,877
2018-01-03T13:33:27.190Z,883
2018-01-03T13:33:57.263Z,860
2018-01-03T13:34:27.312Z,830
2018-01-03T13:34:57.341Z,777
2018-01-03T13:35:27.365Z,750
2018-01-03T13:35:57.403Z,723
2018-01-03T13:36:27.388Z,700
2018-01-03T13:36:57.455Z,650
2018-01-03T13:37:27.467Z,627
2018-01-03T13:37:57.556Z,647
2018-01-03T13:38:27.556Z,663
2018-01-03T13:38:57.582Z,667
2018-01-03T13:39:27.622Z,643
2018-01-03T13:39:57.658Z,667
2018-01-03T13:40:27.726Z,653
2018-01-03T13:40:57.718Z,647
2018-01-03T13:41:27.786Z,623
2018-01-03T13:41:57.793Z,600
2018-01-03T13:42:27.765Z,587
2018-01-03T13:42:57.886Z,560
2018-01-03T13:43:57.936Z,537
2018-01-03T13:44:27.896Z,497
2018-01-03T13:44:57.975Z,473
2018-01-03T13:45:27.959Z,470
2018-01-03T13:45:58.015Z,477
2018-01-03T13:46:28.023Z,470
2018-01-03T13:46:58.119Z,467
2018-01-03T13:47:28.080Z,483
2018-01-03T13:47:58.221Z,487
2018-01-03T13:48:28.139Z,467
2018-01-03T13:48:58.201Z,453
2018-01-03T13:49:28.199Z,447
2018-01-03T13:49:58.242Z,440
2018-01-03T13:50:28.252Z,503
2018-01-03T13:50:58.341Z,567
2018-01-03T13:51:28.342Z,597
2018-01-03T13:51:58.359Z,593
2018-01-03T13:52:28.444Z,603
2018-01-03T13:52:58.435Z,607
2018-01-03T13:53:28.477Z,600
2018-01-03T13:53:58.558Z,613
2018-01-03T13:54:28.507Z,643
2018-01-03T13:54:58.531Z,663
2018-01-03T13:55:28.610Z,673
2018-01-03T13:55:58.594Z,710
2018-01-03T13:56:28.617Z,773
2018-01-03T13:56:58.649Z,820
2018-01-03T13:57:28.654Z,863
2018-01-03T13:57:58.801Z,890
2018-01-03T13:58:28.722Z,927
2018-01-03T13:58:58.785Z,1057
2018-01-03T13:59:28.796Z,1120
2018-01-03T13:59:58.824Z,1187
2018-01-03T14:00:28.857Z,1233
2018-01-03T14:00:58.893Z,1230
2018-01-03T14:01:28.924Z,1253
2018-01-03T14:01:58.955Z,1290
2018-01-03T14:02:29.042Z,1357
2018-01-03T14:02:59.076Z,1360
2018-01-03T14:03:29.041Z,1270
2018-01-03T14:03:59.130Z,1150
2018-01-03T14:04:29.137Z,1040